createdAt,value
2023-03-11T01:56:03.256Z,1.10
2023-03-11T03:01:38.433Z,1.38
2023-03-11T03:10:43.379Z,1.25
2023-03-11T03:13:48.132Z,1.50
2023-03-11T03:26:58.233Z,1.00
2023-03-11T03:30:25.845Z,1.40
2023-03-11T03:33:36.896Z,1.08
2023-03-11T03:36:25.129Z,1.10
2023-03-11T03:43:18.794Z,1.30
2023-03-11T03:46:07.892Z,1.23
2023-03-11T03:48:59.211Z,0.90
2023-03-11T03:51:43.658Z,0.88
2023-03-11T03:54:36.026Z,1.10
2023-03-11T03:57:46.916Z,0.95
2023-03-11T04:03:25.352Z,1.30
2023-03-11T04:06:22.500Z,1.10
2023-03-11T04:09:06.297Z,1.50
2023-03-11T04:11:40.018Z,1.10
2023-03-11T04:14:39.302Z,0.98
2023-03-11T04:17:29.414Z,0.90
2023-03-11T04:30:13.936Z,1.30
2023-03-11T04:33:07.202Z,1.00
2023-03-11T04:36:08.884Z,0.93
2023-03-11T04:38:54.585Z,1.42
2023-03-11T04:41:58.653Z,1.45
2023-03-11T04:45:15.056Z,1.00
2023-03-11T04:48:16.530Z,1.20
2023-03-11T04:51:03.485Z,1.30
2023-03-11T04:53:48.902Z,1.40
2023-03-11T04:56:45.117Z,1.48
2023-03-11T04:59:23.470Z,1.40
2023-03-11T05:02:15.269Z,1.30
2023-03-11T05:04:52.300Z,1.40
2023-03-11T05:07:49.185Z,1.38
2023-03-11T05:10:29.717Z,1.55
2023-03-11T05:13:05.098Z,1.70
2023-03-11T05:15:38.092Z,1.60
2023-03-11T05:18:21.748Z,1.60
2023-03-11T05:21:01.162Z,1.55
2023-03-11T05:23:55.757Z,1.35
2023-03-11T05:29:17.375Z,1.80
2023-03-11T05:31:55.624Z,2.28
2023-03-11T05:34:37.741Z,2.90
2023-03-11T05:40:11.325Z,3.28
2023-03-11T05:42:52.264Z,3.30
2023-03-11T05:45:29.686Z,3.00
2023-03-11T05:48:41.500Z,2.20
2023-03-11T05:51:14.857Z,1.90
2023-03-11T05:53:48.693Z,2.45
2023-03-11T05:56:17.443Z,1.88
2023-03-11T05:58:49.073Z,1.90
2023-03-11T06:01:23.425Z,1.88
2023-03-11T06:03:53.308Z,1.60
2023-03-11T06:06:33.301Z,1.80
2023-03-11T06:09:23.783Z,1.73
2023-03-11T06:12:29.545Z,1.60
2023-03-11T06:15:17.570Z,1.80
2023-03-11T06:17:51.905Z,1.67
2023-03-11T06:20:39.457Z,2.05
2023-03-11T06:23:17.297Z,1.90
2023-03-11T06:26:02.838Z,1.85
2023-03-11T06:28:37.267Z,2.15
2023-03-11T06:31:12.976Z,1.80
2023-03-11T06:33:47.827Z,1.95
2023-03-11T06:36:41.263Z,1.50
2023-03-11T06:39:26.124Z,1.93
2023-03-11T06:42:23.742Z,2.10
2023-03-11T06:44:57.307Z,2.30
2023-03-11T06:47:31.637Z,2.00
2023-03-11T06:50:10.225Z,1.75
2023-03-11T06:52:56.151Z,2.05
2023-03-11T06:58:29.148Z,2.00
2023-03-11T07:01:09.645Z,1.95
2023-03-11T07:03:44.092Z,1.77
2023-03-11T07:06:25.533Z,1.90
2023-03-11T07:09:20.046Z,2.00
2023-03-11T07:11:54.925Z,2.17
2023-03-11T07:14:50.806Z,2.17
2023-03-11T07:17:30.309Z,2.65
2023-03-11T07:20:03.904Z,2.28
2023-03-11T07:22:33.650Z,1.90
2023-03-11T07:25:25.927Z,2.38
2023-03-11T07:27:56.521Z,1.65
2023-03-11T07:30:29.202Z,2.15
2023-03-11T07:33:00.045Z,1.95
2023-03-11T07:35:43.565Z,2.33
2023-03-11T07:38:18.549Z,2.03
2023-03-11T07:40:50.187Z,2.20
2023-03-11T07:43:20.158Z,2.28
2023-03-11T07:45:53.934Z,2.47
2023-03-11T07:48:24.830Z,2.10
2023-03-11T07:51:04.620Z,2.35
2023-03-11T07:53:41.627Z,1.98
2023-03-11T07:56:11.234Z,1.95
2023-03-11T07:58:40.220Z,1.70
2023-03-11T08:01:13.005Z,1.70
2023-03-11T08:03:44.706Z,2.03
2023-03-11T08:06:16.875Z,1.85
2023-03-11T08:08:49.328Z,1.60
2023-03-11T08:11:21.331Z,1.83
2023-03-11T08:13:50.807Z,1.80
2023-03-11T08:16:26.269Z,1.83
2023-03-11T08:19:24.154Z,1.65
2023-03-11T08:22:10.663Z,1.60
2023-03-11T08:24:44.934Z,2.10
2023-03-11T08:27:18.375Z,1.75
2023-03-11T08:29:48.532Z,1.85
2023-03-11T08:32:31.737Z,1.30
2023-03-11T08:35:07.086Z,1.70
2023-03-11T08:37:43.606Z,1.38
2023-03-11T08:40:12.917Z,1.20
2023-03-11T08:42:46.663Z,1.48
2023-03-11T08:45:25.686Z,1.60
2023-03-11T08:48:00.438Z,1.65
2023-03-11T08:50:30.327Z,1.70
2023-03-11T08:53:19.765Z,1.80
2023-03-11T08:55:55.829Z,1.52
2023-03-11T08:58:38.050Z,2.15
2023-03-11T09:01:29.942Z,1.48
2023-03-11T09:04:34.709Z,1.83
2023-03-11T09:07:21.069Z,1.60
2023-03-11T09:10:01.884Z,1.30
2023-03-11T09:12:35.960Z,1.50
2023-03-11T09:15:36.045Z,1.55
2023-03-11T09:18:37.273Z,1.20
2023-03-11T09:21:06.936Z,2.17
2023-03-11T09:26:57.622Z,1.45
2023-03-11T09:29:38.895Z,1.45
2023-03-11T09:32:14.139Z,1.33
2023-03-11T09:40:55.241Z,1.48
2023-03-11T09:43:39.051Z,1.40
2023-03-11T09:46:36.086Z,1.50
2023-03-11T09:49:16.403Z,1.92
2023-03-11T09:51:48.436Z,1.20
2023-03-11T09:54:18.695Z,1.60
2023-03-11T09:56:56.301Z,1.52
2023-03-11T09:59:59.827Z,1.20
2023-03-11T10:02:48.307Z,1.40
2023-03-11T10:05:44.660Z,1.55
2023-03-11T10:08:29.144Z,1.58
2023-03-11T10:11:16.201Z,1.35
2023-03-11T10:13:48.261Z,1.60
2023-03-11T10:16:38.024Z,1.58
2023-03-11T10:19:25.124Z,1.95
2023-03-11T10:22:14.054Z,1.70
2023-03-11T10:24:54.013Z,2.20
2023-03-11T10:27:45.938Z,3.85
2023-03-11T10:30:35.687Z,2.45
2023-03-11T10:33:13.740Z,2.00
2023-03-11T10:35:56.353Z,2.10
2023-03-11T10:38:47.295Z,2.38
2023-03-11T10:41:26.122Z,6.45
2023-03-11T10:44:13.650Z,4.22
2023-03-11T10:46:47.924Z,2.28
2023-03-11T10:49:31.629Z,1.42
2023-03-11T10:52:12.164Z,1.35
2023-03-11T10:54:50.531Z,1.75
2023-03-11T11:00:50.895Z,1.40
2023-03-11T11:03:33.031Z,5.13
2023-03-11T11:09:11.669Z,2.10
2023-03-11T11:11:44.936Z,1.50
2023-03-11T11:14:15.616Z,1.55
2023-03-11T11:16:46.175Z,1.40
2023-03-11T11:19:17.464Z,1.10
2023-03-11T11:21:53.408Z,1.60
2023-03-11T11:24:24.561Z,2.85
2023-03-11T11:27:21.630Z,1.30
2023-03-11T11:30:04.695Z,3.10
2023-03-11T11:32:36.321Z,2.22
2023-03-11T11:35:14.050Z,1.88
2023-03-11T11:37:47.103Z,3.75
2023-03-11T11:40:30.802Z,1.38
2023-03-11T11:43:01.811Z,2.15
2023-03-11T11:45:57.532Z,3.42
2023-03-11T11:48:56.998Z,2.45
2023-03-11T11:52:04.112Z,3.17
2023-03-11T11:54:47.654Z,2.08
2023-03-11T11:57:39.734Z,23.75
2023-03-11T12:00:31.898Z,5.80
2023-03-11T12:03:37.423Z,6.78
2023-03-11T12:06:23.231Z,3.38
2023-03-11T12:09:07.102Z,2.13
2023-03-11T12:11:52.774Z,2.25
2023-03-11T12:14:26.904Z,1.40
2023-03-11T12:17:14.695Z,0.88
2023-03-11T12:22:47.127Z,1.17
2023-03-11T12:25:47.753Z,1.83
2023-03-11T12:28:26.648Z,2.10
2023-03-11T12:30:59.142Z,7.70
2023-03-11T12:53:43.431Z,1.30
2023-03-11T13:13:58.009Z,3.33
2023-03-11T13:17:13.787Z,3.30
2023-03-11T13:20:20.012Z,4.85
2023-03-11T13:23:22.829Z,2.50
2023-03-11T13:26:36.353Z,1.13
2023-03-11T14:21:55.965Z,1.50
2023-03-11T14:24:25.902Z,1.30
2023-03-11T14:26:55.901Z,1.55
2023-03-11T14:29:27.717Z,1.90
2023-03-11T14:31:56.134Z,1.80
2023-03-11T14:34:27.459Z,1.55
2023-03-11T14:36:59.249Z,2.60
2023-03-11T14:39:29.654Z,1.98
2023-03-11T14:42:03.366Z,1.60
2023-03-11T14:44:35.420Z,1.40
2023-03-11T14:47:07.810Z,1.60
2023-03-11T14:49:39.324Z,1.33
2023-03-11T14:52:13.337Z,1.30
2023-03-11T14:54:41.934Z,0.82
2023-03-11T14:57:20.454Z,1.02
2023-03-11T14:59:50.714Z,1.20
2023-03-11T15:02:35.992Z,1.20
2023-03-11T15:05:06.445Z,1.10
2023-03-11T15:07:39.105Z,1.23
2023-03-11T15:10:09.700Z,1.48
2023-03-11T15:12:42.921Z,1.30
2023-03-11T15:15:30.191Z,1.33
2023-03-11T15:18:00.912Z,1.60
2023-03-11T15:20:31.477Z,1.60
2023-03-11T15:23:10.242Z,1.80
2023-03-11T15:25:45.234Z,0.95
2023-03-11T15:28:24.235Z,1.33
2023-03-11T15:30:52.904Z,1.90
2023-03-11T15:33:25.004Z,2.00
2023-03-11T15:36:03.815Z,2.80
2023-03-11T15:38:34.979Z,2.05
2023-03-11T15:41:04.584Z,1.85
2023-03-11T15:43:33.719Z,2.00
2023-03-11T15:46:05.228Z,2.63
2023-03-11T15:48:38.025Z,1.48
2023-03-11T15:51:13.049Z,2.33
2023-03-11T15:53:42.933Z,3.13
2023-03-11T15:56:24.393Z,2.10
2023-03-11T15:58:58.549Z,1.63
2023-03-11T16:01:29.152Z,2.35
2023-03-11T16:04:01.701Z,5.88
2023-03-11T16:06:34.396Z,7.70
2023-03-11T16:09:05.095Z,8.88
2023-03-11T16:11:33.558Z,3.13
2023-03-11T16:14:05.048Z,2.97
2023-03-11T16:16:36.325Z,2.40
2023-03-11T16:19:04.889Z,1.80
2023-03-11T16:21:35.804Z,2.38
2023-03-11T16:24:17.536Z,2.20
2023-03-11T16:27:01.430Z,2.40
2023-03-11T16:29:31.051Z,2.85
2023-03-11T16:32:00.159Z,2.67
2023-03-11T16:34:31.521Z,1.95
2023-03-11T16:37:03.177Z,1.95
2023-03-11T16:39:34.460Z,1.50
2023-03-11T16:42:04.835Z,1.80
2023-03-11T16:44:42.341Z,1.70
2023-03-11T16:47:10.857Z,1.63
2023-03-11T16:49:39.256Z,1.80
2023-03-11T16:52:12.397Z,1.80
2023-03-11T16:54:47.537Z,1.75
2023-03-11T16:57:18.744Z,2.45
2023-03-11T16:59:59.450Z,2.05
2023-03-11T17:02:28.289Z,1.65
2023-03-11T17:04:59.002Z,2.28
2023-03-11T17:07:39.164Z,2.17
2023-03-11T17:10:11.210Z,2.65
2023-03-11T17:12:40.496Z,3.85
2023-03-11T17:15:09.727Z,3.22
2023-03-11T17:17:43.873Z,1.67
2023-03-11T17:20:13.437Z,1.55
2023-03-11T17:22:42.147Z,4.05
2023-03-11T17:25:12.582Z,2.70
2023-03-11T17:27:41.462Z,3.20
2023-03-11T17:30:10.558Z,2.13
2023-03-11T17:32:41.755Z,2.30
2023-03-11T17:35:11.115Z,2.10
2023-03-11T17:37:40.963Z,2.10
2023-03-11T17:40:12.353Z,2.30
2023-03-11T17:42:43.621Z,2.15
2023-03-11T17:45:12.418Z,2.63
2023-03-11T17:47:40.789Z,3.25
2023-03-11T17:50:09.778Z,3.92
2023-03-11T17:52:40.005Z,3.47
2023-03-11T17:55:09.058Z,3.30
2023-03-11T17:57:45.159Z,3.50
2023-03-11T18:00:15.791Z,3.78
2023-03-11T18:02:44.095Z,2.97
2023-03-11T18:05:12.572Z,3.33
2023-03-11T18:07:41.156Z,4.10
2023-03-11T18:10:10.084Z,3.42
2023-03-11T18:12:38.476Z,3.70
2023-03-11T18:15:14.335Z,3.90
2023-03-11T18:17:44.092Z,4.13
2023-03-11T18:20:13.586Z,3.15
2023-03-11T18:22:46.114Z,3.60
2023-03-11T18:25:14.961Z,3.33
2023-03-11T18:27:44.035Z,3.50
2023-03-11T18:30:13.146Z,3.45
2023-03-11T18:32:41.587Z,5.35
2023-03-11T18:35:14.049Z,3.40
2023-03-11T18:37:42.432Z,3.30
2023-03-11T18:40:11.570Z,2.95
2023-03-11T18:42:39.911Z,1.92
2023-03-11T18:45:08.660Z,1.85
2023-03-11T18:47:37.033Z,1.90
2023-03-11T18:50:05.837Z,1.75
2023-03-11T18:52:35.520Z,2.03
2023-03-11T18:55:03.855Z,1.80
2023-03-11T18:57:32.215Z,1.80
2023-03-11T19:00:01.468Z,1.83
2023-03-11T19:02:29.752Z,1.60
2023-03-11T19:04:58.886Z,2.28
2023-03-11T19:07:27.227Z,2.05
2023-03-11T19:09:57.066Z,2.63
2023-03-11T19:12:29.202Z,1.95
2023-03-11T19:14:57.529Z,2.00
2023-03-11T19:17:25.899Z,1.80
2023-03-11T19:19:54.954Z,2.13
2023-03-11T19:22:23.584Z,2.00
2023-03-11T19:24:51.992Z,1.88
2023-03-11T19:27:21.752Z,2.30
2023-03-11T19:29:50.282Z,1.83
2023-03-11T19:32:18.906Z,1.80
2023-03-11T19:38:19.489Z,2.38
2023-03-11T19:40:49.081Z,1.80
2023-03-11T19:43:19.311Z,2.13
2023-03-11T19:45:50.325Z,1.75
2023-03-11T19:48:20.108Z,2.35
2023-03-11T19:50:49.786Z,2.20
2023-03-11T19:53:18.950Z,2.95
2023-03-11T19:56:01.571Z,3.22
2023-03-11T19:58:33.021Z,2.67
2023-03-11T20:03:45.489Z,2.30
2023-03-11T20:06:16.590Z,2.42
2023-03-11T20:08:45.499Z,2.92
2023-03-11T20:11:14.480Z,7.05
2023-03-11T20:13:44.264Z,3.10
2023-03-11T20:16:15.122Z,2.97
2023-03-11T20:18:47.028Z,2.80
2023-03-11T20:21:15.766Z,3.05
2023-03-11T20:23:44.297Z,2.50
2023-03-11T20:26:14.405Z,2.67
2023-03-11T20:28:44.459Z,2.40
2023-03-11T20:31:13.633Z,2.70
2023-03-11T20:33:42.507Z,2.72
2023-03-11T20:36:12.228Z,2.47
2023-03-11T20:38:40.804Z,2.60
2023-03-11T20:41:09.816Z,2.10
2023-03-11T20:43:38.797Z,3.90
2023-03-11T20:46:09.244Z,13.77
2023-03-11T20:48:38.271Z,12.10
2023-03-11T20:51:07.785Z,15.63
2023-03-11T20:53:36.397Z,12.02
2023-03-11T20:56:07.628Z,10.48
2023-03-11T20:58:36.276Z,7.90
2023-03-11T21:01:13.053Z,8.65
2023-03-11T21:03:41.767Z,9.82
2023-03-11T21:06:17.620Z,8.18
2023-03-11T21:08:48.270Z,8.15
2023-03-11T21:23:24.867Z,3.83
2023-03-11T21:26:07.632Z,4.03
2023-03-11T21:28:41.274Z,4.22
2023-03-11T21:31:16.988Z,4.28
2023-03-11T21:33:45.797Z,4.60
2023-03-11T21:36:15.137Z,4.47
2023-03-11T21:38:45.403Z,5.30
2023-03-11T21:41:17.908Z,5.13
2023-03-11T21:43:54.117Z,4.60
2023-03-11T21:46:29.418Z,5.22
2023-03-11T21:48:58.575Z,4.55
2023-03-11T21:51:27.571Z,5.07
2023-03-11T21:53:57.975Z,4.93
2023-03-11T21:56:26.568Z,5.18
2023-03-11T21:58:57.494Z,5.00
2023-03-11T22:01:39.774Z,4.80
2023-03-11T22:04:08.304Z,5.57
2023-03-11T22:06:37.229Z,5.78
2023-03-11T22:09:07.179Z,6.35
2023-03-11T22:11:35.664Z,6.95
2023-03-11T22:14:04.147Z,6.82
2023-03-11T22:16:32.619Z,6.90
2023-03-11T22:19:01.061Z,6.93
2023-03-11T22:21:29.559Z,7.13
2023-03-11T22:23:58.042Z,7.45
2023-03-11T22:26:27.982Z,5.63
2023-03-11T22:28:56.520Z,6.80
2023-03-11T22:31:25.168Z,8.57
2023-03-11T22:33:54.146Z,8.27
2023-03-11T22:36:22.506Z,8.38
2023-03-11T22:38:50.846Z,8.65
2023-03-11T22:41:20.322Z,10.10
2023-03-11T22:43:50.105Z,9.65
2023-03-11T22:46:19.596Z,10.65
2023-03-11T22:48:48.322Z,9.68
2023-03-11T22:51:17.269Z,8.15
2023-03-11T22:53:45.754Z,8.30
2023-03-11T22:56:15.841Z,9.07
2023-03-11T22:58:44.458Z,9.82
2023-03-11T23:01:14.853Z,9.02
2023-03-11T23:03:44.019Z,9.40
2023-03-11T23:06:14.363Z,10.18
2023-03-11T23:08:42.752Z,8.25
2023-03-11T23:11:12.133Z,8.20
2023-03-11T23:13:41.360Z,8.35
2023-03-11T23:16:11.627Z,9.50
2023-03-11T23:18:42.194Z,8.90
2023-03-11T23:21:16.087Z,7.47
2023-03-11T23:23:44.618Z,6.93
2023-03-11T23:26:17.374Z,8.10
2023-03-11T23:28:46.604Z,7.57
2023-03-11T23:31:17.796Z,8.40
2023-03-11T23:33:47.653Z,7.97
2023-03-11T23:36:18.643Z,7.10
2023-03-11T23:38:47.647Z,7.03
2023-03-11T23:41:27.771Z,5.95
2023-03-11T23:43:56.198Z,6.95
2023-03-11T23:46:24.740Z,6.60
2023-03-11T23:48:54.651Z,6.15
2023-03-11T23:51:24.614Z,6.97
2023-03-11T23:53:54.530Z,6.55
2023-03-11T23:56:22.921Z,6.10
2023-03-11T23:58:51.332Z,6.43
